Time;durP1;ratioP1;P1;durP2;ratioP2;P2;SDS_P1;SDS_P2;PMS_P1;PMS_P2;Temp;Humidity;BMP_temperature;BMP_pressure;BME280_temperature;BME280_humidity;BME280_pressure;Samples;Min_cycle;Max_cycle;Signal;HPM_P1;HPM_P2
2021/08/16 00:00:21;;;;;;;;;;;;;;;;;;5036014;28;19936;-84
2021/08/16 00:02:50;;;;;;;;;;;;;;;;;;5036072;28;19931;-83
2021/08/16 00:05:19;;;;;;;;;;;;;;;;;;5034251;28;20633;-83
2021/08/16 00:07:47;;;;;;;;;;;;;;;;;;5037234;28;20582;-84
2021/08/16 00:10:18;;;;;;;;;;;;;;;;;;5014157;28;20110;-83
2021/08/16 00:12:46;;;;;;;;;;;;;;;;;;5035570;28;19929;-84
2021/08/16 00:15:15;;;;;;;;;;;;;;;;;;5034223;28;19933;-84
2021/08/16 00:17:44;;;;;;;;;;;;;;;;;;5034006;28;19925;-86
2021/08/16 00:20:12;;;;;;;;;;;;;;;;;;5050124;28;22477;-84
2021/08/16 00:22:41;;;;;;;;;;;;;;;;;;5021739;28;20023;-84
2021/08/16 00:25:09;;;;;;;;;;;;;;;;;;5016855;28;19936;-84
2021/08/16 00:27:39;;;;;;;;;;;;;;;;;;5027688;28;19929;-84
2021/08/16 00:30:08;;;;;;;;;;;;;;;;;;5037007;28;20387;-84
2021/08/16 00:32:36;;;;;;;;;;;;;;;;;;5044829;28;19925;-84
2021/08/16 00:35:05;;;;;;;;;;;;;;;;;;5038708;28;19929;-84
2021/08/16 00:37:34;;;;;;;;;;;;;;;;;;5013439;28;19933;-85
2021/08/16 00:40:02;;;;;;;;;;;;;;;;;;5017047;28;19937;-84
2021/08/16 00:42:31;;;;;;;;;;;;;;;;;;5014710;28;19925;-83
2021/08/16 00:45:03;;;;;;;;;;;;;;;;;;5019000;28;19934;-82
2021/08/16 00:47:32;;;;;;;;;;;;;;;;;;5018656;28;19929;-83
2021/08/16 00:50:00;;;;;;;;;;;;;;;;;;5016040;28;20415;-86
2021/08/16 00:52:29;;;;;;;;;;;;;;;;;;5049996;28;20009;-83
2021/08/16 00:54:57;;;;;;;;;;;;;;;;;;5031456;28;19925;-85
2021/08/16 00:57:27;;;;;;;;;;;;;;;;;;5016893;28;19933;-85
2021/08/16 00:59:56;;;;;;;;;;;;;;;;;;5037495;28;20304;-84
2021/08/16 01:02:26;;;;;;;;;;;;;;;;;;5038118;28;19932;-83
2021/08/16 01:04:56;;;;;;;;;;;;;;;;;;5028874;28;19936;-83
2021/08/16 01:07:24;;;;;;;;;;;;;;;;;;5031692;28;19926;-84
2021/08/16 01:09:52;;;;;;;;;;;;;;;;;;5040459;28;20304;-83
2021/08/16 01:12:21;;;;;;;;;;;;;;;;;;5035301;28;19933;-84
2021/08/16 01:14:50;;;;;;;;;;;;;;;;;;5036268;28;19932;-85
2021/08/16 01:17:19;;;;;;;;;;;;;;;;;;5035235;28;20196;-83
2021/08/16 01:19:49;;;;;;;;;;;;;;;;;;5052719;28;19933;-84
2021/08/16 01:22:18;;;;;;;;;;;;;;;;;;5019709;28;19925;-84
2021/08/16 01:24:47;;;;;;;;;;;;;;;;;;5015451;28;19929;-82
2021/08/16 01:27:17;;;;;;;;;;;;;;;;;;5037700;28;19925;-84
2021/08/16 01:29:45;;;;;;;;;;;;;;;;;;5015501;28;19933;-83
2021/08/16 01:32:14;;;;;;;;;;;;;;;;;;5029829;28;20173;-83
2021/08/16 01:34:42;;;;;;;;;;;;;;;;;;5039819;28;19925;-83
2021/08/16 01:37:11;;;;;;;;;;;;;;;;;;5022014;28;19943;-83
2021/08/16 01:39:40;;;;;;;;;;;;;;;;;;5019368;28;19925;-83
2021/08/16 01:42:09;;;;;;;;;;;;;;;;;;5037623;28;19925;-84
2021/08/16 01:44:39;;;;;;;;;;;;;;;;;;5058641;28;19932;-84
2021/08/16 01:47:07;;;;;;;;;;;;;;;;;;5017507;28;19940;-83
2021/08/16 01:49:36;;;;;;;;;;;;;;;;;;5006439;28;19933;-82
2021/08/16 01:52:05;;;;;;;;;;;;;;;;;;5023019;28;20293;-83
2021/08/16 01:54:33;;;;;;;;;;;;;;;;;;5031600;28;19936;-83
2021/08/16 01:57:02;;;;;;;;;;;;;;;;;;5016861;28;19947;-83
2021/08/16 01:59:30;;;;;;;;;;;;;;;;;;5030131;28;19925;-83
2021/08/16 02:02:00;;;;;;;;;;;;;;;;;;5018593;28;19949;-84
2021/08/16 02:04:29;;;;;;;;;;;;;;;;;;5033099;28;19929;-84
2021/08/16 02:06:57;;;;;;;;;;;;;;;;;;5048880;28;20283;-82
2021/08/16 02:09:26;;;;;;;;;;;;;;;;;;5028822;28;19937;-84
2021/08/16 02:11:54;;;;;;;;;;;;;;;;;;5029241;28;19925;-84
2021/08/16 02:14:23;;;;;;;;;;;;;;;;;;5013800;28;19933;-84
2021/08/16 02:16:51;;;;;;;;;;;;;;;;;;5038550;28;19936;-84
2021/08/16 02:19:21;;;;;;;;;;;;;;;;;;5010737;28;19929;-83
2021/08/16 02:21:49;;;;;;;;;;;;;;;;;;5052230;28;20187;-84
2021/08/16 02:24:18;;;;;;;;;;;;;;;;;;5035096;28;19937;-84
2021/08/16 02:26:46;;;;;;;;;;;;;;;;;;5049152;28;19933;-83
2021/08/16 02:29:15;;;;;;;;;;;;;;;;;;5031704;28;19933;-82
2021/08/16 02:31:43;;;;;;;;;;;;;;;;;;5031412;28;19929;-83
2021/08/16 02:34:12;;;;;;;;;;;;;;;;;;5029935;28;19925;-85
2021/08/16 02:36:42;;;;;;;;;;;;;;;;;;5036306;28;19925;-83
2021/08/16 02:39:10;;;;;;;;;;;;;;;;;;5039070;28;19925;-83
2021/08/16 02:41:39;;;;;;;;;;;;;;;;;;5044902;28;19944;-83
2021/08/16 02:44:07;;;;;;;;;;;;;;;;;;5047295;28;19932;-81
2021/08/16 02:46:36;;;;;;;;;;;;;;;;;;5037681;28;20514;-85
2021/08/16 02:49:04;;;;;;;;;;;;;;;;;;5032805;28;19948;-85
2021/08/16 02:51:34;;;;;;;;;;;;;;;;;;5034040;28;19932;-87
2021/08/16 02:54:03;;;;;;;;;;;;;;;;;;5016749;28;19941;-88
2021/08/16 02:56:37;;;;;;;;;;;;;;;;;;5030803;28;19929;-86
2021/08/16 02:59:05;;;;;;;;;;;;;;;;;;5019206;28;20568;-82
2021/08/16 03:01:34;;;;;;;;;;;;;;;;;;5023604;28;20330;-79
2021/08/16 03:04:02;;;;;;;;;;;;;;;;;;5040365;28;19925;-82
2021/08/16 03:06:31;;;;;;;;;;;;;;;;;;5027733;28;19932;-81
2021/08/16 03:08:59;;;;;;;;;;;;;;;;;;5036400;28;19926;-82
2021/08/16 03:11:29;;;;;;;;;;;;;;;;;;5034448;28;19925;-82
2021/08/16 03:13:57;;;;;;;;;;;;;;;;;;5047721;28;19933;-82
2021/08/16 03:16:26;;;;;;;;;;;;;;;;;;5039254;28;19940;-83
2021/08/16 03:18:54;;;;;;;;;;;;;;;;;;5046241;28;19940;-85
2021/08/16 03:21:23;;;;;;;;;;;;;;;;;;5015639;28;19933;-81
2021/08/16 03:23:51;;;;;;;;;;;;;;;;;;5038061;28;19935;-81
2021/08/16 03:26:20;;;;;;;;;;;;;;;;;;5040802;28;19925;-82
2021/08/16 03:28:49;;;;;;;;;;;;;;;;;;5043149;28;19928;-82
2021/08/16 03:31:18;;;;;;;;;;;;;;;;;;5034869;28;19935;-80
2021/08/16 03:33:46;;;;;;;;;;;;;;;;;;5030099;28;20025;-82
2021/08/16 03:36:15;;;;;;;;;;;;;;;;;;5035817;28;19936;-83
2021/08/16 03:38:43;;;;;;;;;;;;;;;;;;5034895;28;19936;-81
2021/08/16 03:41:13;;;;;;;;;;;;;;;;;;5042911;28;20481;-82
2021/08/16 03:43:41;;;;;;;;;;;;;;;;;;5023145;28;19940;-81
2021/08/16 03:46:11;;;;;;;;;;;;;;;;;;5028308;28;19936;-82
2021/08/16 03:48:40;;;;;;;;;;;;;;;;;;5053083;28;19932;-80
2021/08/16 03:51:08;;;;;;;;;;;;;;;;;;5018971;28;19941;-82
2021/08/16 03:53:37;;;;;;;;;;;;;;;;;;5016307;28;19940;-83
2021/08/16 03:56:06;;;;;;;;;;;;;;;;;;5053058;28;19926;-81
2021/08/16 03:58:35;;;;;;;;;;;;;;;;;;5031101;28;20371;-83
2021/08/16 04:01:03;;;;;;;;;;;;;;;;;;5018117;28;19929;-81
2021/08/16 04:03:33;;;;;;;;;;;;;;;;;;5025702;28;20434;-81
2021/08/16 04:06:02;;;;;;;;;;;;;;;;;;5015212;28;19933;-84
2021/08/16 04:08:30;;;;;;;;;;;;;;;;;;5031670;28;19952;-83
2021/08/16 04:10:59;;;;;;;;;;;;;;;;;;5048211;28;19929;-79
2021/08/16 04:13:27;;;;;;;;;;;;;;;;;;5013658;28;19932;-80
2021/08/16 04:15:55;;;;;;;;;;;;;;;;;;5017429;28;19933;-82
2021/08/16 04:18:24;;;;;;;;;;;;;;;;;;5036682;28;19925;-81
2021/08/16 04:20:54;;;;;;;;;;;;;;;;;;5050265;28;19925;-83
2021/08/16 04:23:22;;;;;;;;;;;;;;;;;;5031120;28;19933;-80
2021/08/16 04:25:51;;;;;;;;;;;;;;;;;;5036525;28;19932;-83
2021/08/16 04:28:19;;;;;;;;;;;;;;;;;;5031075;28;19925;-82
2021/08/16 04:30:48;;;;;;;;;;;;;;;;;;5017307;28;19925;-82
2021/08/16 04:33:17;;;;;;;;;;;;;;;;;;5016984;28;19933;-80
2021/08/16 04:35:46;;;;;;;;;;;;;;;;;;5004125;28;20280;-83
2021/08/16 04:38:19;;;;;;;;;;;;;;;;;;5037779;28;19929;-83
2021/08/16 04:40:47;;;;;;;;;;;;;;;;;;5018689;28;19932;-84
2021/08/16 04:43:16;;;;;;;;;;;;;;;;;;5046650;28;19925;-79
2021/08/16 04:45:45;;;;;;;;;;;;;;;;;;5039069;28;19932;-82
2021/08/16 04:48:13;;;;;;;;;;;;;;;;;;5034599;28;19935;-82
2021/08/16 04:50:42;;;;;;;;;;;;;;;;;;5028244;28;19925;-82
2021/08/16 04:53:10;;;;;;;;;;;;;;;;;;5018702;28;19925;-81
2021/08/16 04:55:40;;;;;;;;;;;;;;;;;;5038705;28;20179;-83
2021/08/16 04:58:09;;;;;;;;;;;;;;;;;;5020119;28;19929;-83
2021/08/16 05:00:37;;;;;;;;;;;;;;;;;;5036210;28;19925;-82
2021/08/16 05:03:06;;;;;;;;;;;;;;;;;;5036217;28;19926;-84
2021/08/16 05:05:34;;;;;;;;;;;;;;;;;;5054689;28;19932;-80
2021/08/16 05:08:03;;;;;;;;;;;;;;;;;;5034278;28;20046;-81
2021/08/16 05:10:31;;;;;;;;;;;;;;;;;;5030691;28;19933;-81
2021/08/16 05:13:01;;;;;;;;;;;;;;;;;;5010585;28;19925;-80
2021/08/16 05:15:29;;;;;;;;;;;;;;;;;;5048030;28;19929;-80
2021/08/16 05:18:02;;;;;;;;;;;;;;;;;;5007267;28;21101;-81
2021/08/16 05:20:31;;;;;;;;;;;;;;;;;;5023231;28;19925;-80
2021/08/16 05:22:59;;;;;;;;;;;;;;;;;;5022170;28;19960;-83
2021/08/16 05:25:27;;;;;;;;;;;;;;;;;;5007343;28;19925;-82
2021/08/16 05:27:56;;;;;;;;;;;;;;;;;;5025714;28;19932;-81
2021/08/16 05:30:25;;;;;;;;;;;;;;;;;;5020052;28;19936;-81
2021/08/16 05:32:53;;;;;;;;;;;;;;;;;;5027751;28;19934;-81
2021/08/16 05:35:22;;;;;;;;;;;;;;;;;;5024106;28;20414;-82
2021/08/16 05:37:50;;;;;;;;;;;;;;;;;;5024617;28;20437;-81
2021/08/16 05:40:19;;;;;;;;;;;;;;;;;;5037709;28;19947;-81
2021/08/16 05:42:47;;;;;;;;;;;;;;;;;;5023264;28;19936;-82
2021/08/16 05:45:15;;;;;;;;;;;;;;;;;;5025867;28;19926;-80
2021/08/16 05:47:45;;;;;;;;;;;;;;;;;;5035395;28;19932;-82
2021/08/16 05:50:14;;;;;;;;;;;;;;;;;;5018989;28;19943;-81
2021/08/16 05:52:42;;;;;;;;;;;;;;;;;;5048016;28;19976;-80
2021/08/16 05:55:11;;;;;;;;;;;;;;;;;;5024154;28;19925;-80
2021/08/16 05:57:39;;;;;;;;;;;;;;;;;;5018076;28;19929;-82
2021/08/16 06:00:08;;;;;;;;;;;;;;;;;;5027128;28;20389;-81
2021/08/16 06:02:36;;;;;;;;;;;;;;;;;;5046572;28;19926;-82
2021/08/16 06:05:07;;;;;;;;;;;;;;;;;;5022405;28;20342;-81
2021/08/16 06:07:35;;;;;;;;;;;;;;;;;;5022059;28;20310;-82
2021/08/16 06:10:04;;;;;;;;;;;;;;;;;;4992561;28;19944;-77
2021/08/16 06:12:32;;;;;;;;;;;;;;;;;;5018669;28;19932;-82
2021/08/16 06:15:00;;;;;;;;;;;;;;;;;;5018965;28;19932;-83
2021/08/16 06:17:31;;;;;;;;;;;;;;;;;;5038057;28;20311;-82
2021/08/16 06:19:59;;;;;;;;;;;;;;;;;;5020569;28;19932;-82
2021/08/16 06:22:30;;;;;;;;;;;;;;;;;;5014312;28;19928;-79
2021/08/16 06:24:58;;;;;;;;;;;;;;;;;;5013788;28;19936;-82
2021/08/16 06:27:26;;;;;;;;;;;;;;;;;;5030248;28;19932;-82
2021/08/16 06:29:54;;;;;;;;;;;;;;;;;;5011304;28;19948;-79
2021/08/16 06:32:22;;;;;;;;;;;;;;;;;;5002151;28;19925;-79
2021/08/16 06:34:51;;;;;;;;;;;;;;;;;;5032268;28;19925;-79
2021/08/16 06:37:21;;;;;;;;;;;;;;;;;;5018664;28;19925;-79
2021/08/16 06:39:50;;;;;;;;;;;;;;;;;;5018848;28;19940;-82
2021/08/16 06:42:19;;;;;;;;;;;;;;;;;;5024826;28;19932;-82
2021/08/16 06:44:47;;;;;;;;;;;;;;;;;;5029319;28;19940;-81
2021/08/16 06:47:15;;;;;;;;;;;;;;;;;;5033896;28;19932;-82
2021/08/16 06:49:44;;;;;;;;;;;;;;;;;;5022143;28;20309;-79
2021/08/16 06:52:13;;;;;;;;;;;;;;;;;;5017225;28;19933;-82
2021/08/16 06:54:41;;;;;;;;;;;;;;;;;;5016931;28;20289;-81
2021/08/16 06:57:10;;;;;;;;;;;;;;;;;;5012254;28;19933;-81
2021/08/16 06:59:39;;;;;;;;;;;;;;;;;;5036204;28;19932;-82
2021/08/16 07:02:07;;;;;;;;;;;;;;;;;;5045541;28;19943;-80
2021/08/16 07:04:38;;;;;;;;;;;;;;;;;;5037772;28;20314;-77
2021/08/16 07:07:06;;;;;;;;;;;;;;;;;;5027566;28;19925;-81
2021/08/16 07:09:35;;;;;;;;;;;;;;;;;;5020559;28;19932;-81
2021/08/16 07:12:03;;;;;;;;;;;;;;;;;;5030411;28;19933;-81
2021/08/16 07:14:33;;;;;;;;;;;;;;;;;;5029104;28;19944;-80
2021/08/16 07:17:01;;;;;;;;;;;;;;;;;;5032277;28;19925;-81
2021/08/16 07:19:29;;;;;;;;;;;;;;;;;;5028508;28;20406;-81
2021/08/16 07:21:57;;;;;;;;;;;;;;;;;;5028123;28;19925;-81
2021/08/16 07:24:26;;;;;;;;;;;;;;;;;;5033497;28;20302;-80
2021/08/16 07:26:54;;;;;;;;;;;;;;;;;;5029462;28;20290;-81
2021/08/16 07:29:24;;;;;;;;;;;;;;;;;;5023602;28;19933;-82
2021/08/16 07:31:54;;;;;;;;;;;;;;;;;;5014927;28;19926;-82
2021/08/16 07:34:22;;;;;;;;;;;;;;;;;;5041919;28;19929;-82
2021/08/16 07:36:54;;;;;;;;;;;;;;;;;;5033807;28;20290;-79
2021/08/16 07:39:22;;;;;;;;;;;;;;;;;;5044957;28;19941;-80
2021/08/16 07:41:50;;;;;;;;;;;;;;;;;;5033607;28;19925;-81
2021/08/16 07:44:18;;;;;;;;;;;;;;;;;;5045347;28;19925;-79
2021/08/16 07:46:46;;;;;;;;;;;;;;;;;;5028490;28;19925;-80
2021/08/16 07:49:16;;;;;;;;;;;;;;;;;;5030677;28;19940;-80
2021/08/16 07:51:44;;;;;;;;;;;;;;;;;;5031544;28;19925;-81
2021/08/16 07:54:12;;;;;;;;;;;;;;;;;;5020791;28;19933;-81
2021/08/16 07:56:40;;;;;;;;;;;;;;;;;;5038859;28;20303;-80
2021/08/16 07:59:09;;;;;;;;;;;;;;;;;;5030717;28;19929;-82
2021/08/16 08:01:37;;;;;;;;;;;;;;;;;;5019335;28;19925;-80
2021/08/16 08:04:05;;;;;;;;;;;;;;;;;;5049322;28;19925;-81
2021/08/16 08:06:35;;;;;;;;;;;;;;;;;;5044650;28;19940;-81
2021/08/16 08:09:03;;;;;;;;;;;;;;;;;;5036558;28;20340;-79
2021/08/16 08:11:31;;;;;;;;;;;;;;;;;;5047258;28;19940;-80
2021/08/16 08:13:59;;;;;;;;;;;;;;;;;;5012914;28;19951;-80
2021/08/16 08:16:27;;;;;;;;;;;;;;;;;;5029176;28;19925;-79
2021/08/16 08:18:56;;;;;;;;;;;;;;;;;;5033409;28;19928;-81
2021/08/16 08:21:24;;;;;;;;;;;;;;;;;;5040347;28;19932;-80
2021/08/16 08:23:53;;;;;;;;;;;;;;;;;;5052305;28;19952;-80
2021/08/16 08:26:21;;;;;;;;;;;;;;;;;;5043894;28;20115;-79
2021/08/16 08:28:50;;;;;;;;;;;;;;;;;;5017129;28;19932;-78
2021/08/16 08:31:18;;;;;;;;;;;;;;;;;;5028810;28;19940;-80
2021/08/16 08:33:46;;;;;;;;;;;;;;;;;;5030340;28;19936;-79
2021/08/16 08:36:14;;;;;;;;;;;;;;;;;;5005883;28;20437;-79
2021/08/16 08:38:42;;;;;;;;;;;;;;;;;;5028770;28;20405;-80
2021/08/16 08:41:12;;;;;;;;;;;;;;;;;;4999763;28;19932;-79
2021/08/16 08:43:40;;;;;;;;;;;;;;;;;;5025159;28;19940;-79
2021/08/16 08:46:08;;;;;;;;;;;;;;;;;;5030231;28;19931;-80
2021/08/16 08:48:37;;;;;;;;;;;;;;;;;;5015469;28;19932;-81
2021/08/16 08:51:05;;;;;;;;;;;;;;;;;;5028744;28;19929;-81
2021/08/16 08:53:33;;;;;;;;;;;;;;;;;;5047929;28;19925;-79
2021/08/16 08:56:01;;;;;;;;;;;;;;;;;;5024470;28;19932;-79
2021/08/16 08:58:31;;;;;;;;;;;;;;;;;;5026861;28;19932;-82
2021/08/16 09:00:59;;;;;;;;;;;;;;;;;;5034934;28;19936;-84
2021/08/16 09:03:28;;;;;;;;;;;;;;;;;;5029792;28;19932;-84
2021/08/16 09:06:02;;;;;;;;;;;;;;;;;;5029150;28;19926;-84
2021/08/16 09:08:34;;;;;;;;;;;;;;;;;;5023010;28;19925;-86
2021/08/16 09:11:07;;;;;;;;;;;;;;;;;;5033310;28;20035;-85
2021/08/16 09:13:36;;;;;;;;;;;;;;;;;;5022969;28;19929;-86
2021/08/16 09:16:08;;;;;;;;;;;;;;;;;;5034664;28;19929;-86
2021/08/16 09:18:36;;;;;;;;;;;;;;;;;;5019577;28;19940;-85
2021/08/16 09:21:05;;;;;;;;;;;;;;;;;;5034875;28;19933;-89
2021/08/16 09:23:40;;;;;;;;;;;;;;;;;;5033874;28;19925;-86
2021/08/16 09:26:11;;;;;;;;;;;;;;;;;;5035600;28;20193;-87
2021/08/16 09:28:41;;;;;;;;;;;;;;;;;;5036448;28;19932;-89
2021/08/16 09:31:11;;;;;;;;;;;;;;;;;;5039515;28;19925;-88
2021/08/16 09:33:54;;;;;;;;;;;;;;;;;;5024972;28;19932;-86
2021/08/16 09:36:22;;;;;;;;;;;;;;;;;;5027508;28;19932;-88
2021/08/16 09:38:50;;;;;;;;;;;;;;;;;;5040134;28;19940;-85
2021/08/16 09:41:20;;;;;;;;;;;;;;;;;;5029593;28;20562;-86
2021/08/16 09:43:50;;;;;;;;;;;;;;;;;;5007281;28;19925;-86
2021/08/16 09:46:19;;;;;;;;;;;;;;;;;;5020996;28;19925;-88
2021/08/16 09:48:57;;;;;;;;;;;;;;;;;;5038160;28;19929;-87
2021/08/16 09:51:26;;;;;;;;;;;;;;;;;;5034879;28;20043;-88
2021/08/16 09:53:55;;;;;;;;;;;;;;;;;;5035221;28;20294;-85
2021/08/16 09:56:24;;;;;;;;;;;;;;;;;;5021942;28;19940;-89
2021/08/16 09:58:54;;;;;;;;;;;;;;;;;;5021677;28;20531;-89
2021/08/16 10:01:22;;;;;;;;;;;;;;;;;;5053886;28;19933;-86
2021/08/16 10:03:51;;;;;;;;;;;;;;;;;;5033970;28;20039;-87
2021/08/16 10:06:20;;;;;;;;;;;;;;;;;;5053574;28;19925;-87
2021/08/16 10:08:50;;;;;;;;;;;;;;;;;;5027005;28;19936;-86
2021/08/16 10:11:20;;;;;;;;;;;;;;;;;;5036585;28;19936;-86
2021/08/16 10:13:49;;;;;;;;;;;;;;;;;;5035376;28;20330;-84
2021/08/16 10:16:21;;;;;;;;;;;;;;;;;;5036239;28;19925;-86
2021/08/16 10:18:52;;;;;;;;;;;;;;;;;;5018622;28;20008;-85
2021/08/16 10:21:21;;;;;;;;;;;;;;;;;;5032212;28;20288;-87
2021/08/16 10:23:50;;;;;;;;;;;;;;;;;;5020326;28;19940;-87
2021/08/16 10:26:26;;;;;;;;;;;;;;;;;;5036611;28;19925;-85
2021/08/16 10:28:55;;;;;;;;;;;;;;;;;;5037958;28;19925;-88
2021/08/16 10:31:29;;;;;;;;;;;;;;;;;;5015495;28;19925;-88
2021/08/16 10:33:59;;;;;;;;;;;;;;;;;;5038766;28;19924;-86
2021/08/16 10:36:27;;;;;;;;;;;;;;;;;;5045317;28;19932;-89
2021/08/16 10:38:56;;;;;;;;;;;;;;;;;;5019637;28;20383;-88
2021/08/16 10:41:25;;;;;;;;;;;;;;;;;;5027497;28;19926;-86
2021/08/16 10:43:54;;;;;;;;;;;;;;;;;;5032205;28;19932;-88
2021/08/16 10:46:23;;;;;;;;;;;;;;;;;;5035481;28;20306;-86
2021/08/16 10:49:03;;;;;;;;;;;;;;;;;;5030370;28;19925;-87
2021/08/16 10:51:42;;;;;;;;;;;;;;;;;;5011320;28;20375;-86
2021/08/16 10:54:11;;;;;;;;;;;;;;;;;;5005876;28;19925;-87
2021/08/16 10:56:40;;;;;;;;;;;;;;;;;;5008530;28;19925;-86
2021/08/16 10:59:08;;;;;;;;;;;;;;;;;;5004923;28;19936;-88
2021/08/16 11:01:36;;;;;;;;;;;;;;;;;;5023048;28;19932;-88
2021/08/16 11:04:30;;;;;;;;;;;;;;;;;;5018217;28;19925;-87
2021/08/16 11:07:00;;;;;;;;;;;;;;;;;;5011533;28;19925;-86
2021/08/16 11:09:30;;;;;;;;;;;;;;;;;;5010431;28;19925;-86
2021/08/16 11:12:02;;;;;;;;;;;;;;;;;;5024465;28;19929;-86
2021/08/16 11:14:31;;;;;;;;;;;;;;;;;;5035219;28;19925;-87
2021/08/16 11:16:59;;;;;;;;;;;;;;;;;;5035088;28;19932;-85
2021/08/16 11:19:40;;;;;;;;;;;;;;;;;;5030128;28;19925;-86
2021/08/16 11:22:08;;;;;;;;;;;;;;;;;;5027616;28;19932;-85
2021/08/16 11:24:37;;;;;;;;;;;;;;;;;;5019202;28;19926;-84
2021/08/16 11:27:06;;;;;;;;;;;;;;;;;;5042816;28;19928;-84
2021/08/16 11:29:34;;;;;;;;;;;;;;;;;;5032099;28;19925;-84
2021/08/16 11:32:03;;;;;;;;;;;;;;;;;;5046437;28;19925;-85
2021/08/16 11:34:33;;;;;;;;;;;;;;;;;;5005225;28;19932;-87
2021/08/16 11:37:01;;;;;;;;;;;;;;;;;;5038068;28;19929;-86
2021/08/16 11:39:30;;;;;;;;;;;;;;;;;;5032820;28;19925;-85
2021/08/16 11:42:04;;;;;;;;;;;;;;;;;;5023801;28;19931;-89
2021/08/16 11:44:46;;;;;;;;;;;;;;;;;;5033909;28;19940;-87
2021/08/16 11:47:15;;;;;;;;;;;;;;;;;;5021797;28;19932;-83
2021/08/16 11:49:45;;;;;;;;;;;;;;;;;;5035792;28;19926;-83
2021/08/16 11:52:21;;;;;;;;;;;;;;;;;;5037406;28;20542;-82
2021/08/16 11:54:49;;;;;;;;;;;;;;;;;;5039545;28;19948;-84
2021/08/16 11:57:38;;;;;;;;;;;;;;;;;;5024803;28;19929;-84
2021/08/16 12:00:08;;;;;;;;;;;;;;;;;;5032675;28;20298;-83
2021/08/16 12:02:40;;;;;;;;;;;;;;;;;;5038812;28;19933;-82
2021/08/16 12:05:10;;;;;;;;;;;;;;;;;;5030848;28;19925;-84
2021/08/16 12:07:45;;;;;;;;;;;;;;;;;;5015120;28;19926;-86
2021/08/16 12:10:17;;;;;;;;;;;;;;;;;;5030773;28;19925;-85
2021/08/16 12:12:58;;;;;;;;;;;;;;;;;;5040449;28;19929;-82
2021/08/16 12:15:27;;;;;;;;;;;;;;;;;;5034157;28;19941;-86
2021/08/16 12:18:04;;;;;;;;;;;;;;;;;;5051263;28;19934;-82
2021/08/16 12:20:41;;;;;;;;;;;;;;;;;;5017307;28;19980;-82
2021/08/16 12:23:26;;;;;;;;;;;;;;;;;;5116269;27;19951;-91
2021/08/16 12:26:06;;;;;;;;;;;;;;;;;;4721030;27;11289563;-82
2021/08/16 12:28:47;;;;;;;;;;;;;;;;;;5145240;27;19919;-84
2021/08/16 12:31:30;;;;;;;;;;;;;;;;;;5053859;28;19969;-80
2021/08/16 12:34:12;;;;;;;;;;;;;;;;;;5089691;28;19982;-81
2021/08/16 12:36:54;;;;;;;;;;;;;;;;;;5103509;27;19925;-81
2021/08/16 12:39:37;;;;;;;;;;;;;;;;;;5107755;27;19942;-84
2021/08/16 12:42:18;;;;;;;;;;;;;;;;;;5101776;27;19993;-83
2021/08/16 12:44:59;;;;;;;;;;;;;;;;;;5108855;27;19955;-83
2021/08/16 12:47:41;;;;;;;;;;;;;;;;;;5101170;27;20005;-84
2021/08/16 12:50:22;;;;;;;;;;;;;;;;;;5064629;27;19939;-81
2021/08/16 12:53:04;;;;;;;;;;;;;;;;;;5100666;27;19954;-81
2021/08/16 12:55:59;;;;;;;;;;;;;;;;;;5146545;27;19958;-85
2021/08/16 12:58:39;;;;;;;;;;;;;;;;;;5087203;27;20094;-82
2021/08/16 13:01:21;;;;;;;;;;;;;;;;;;5101853;27;23171;-90
2021/08/16 13:04:02;;;;;;;;;;;;;;;;;;5087414;27;19948;-83
2021/08/16 13:06:43;;;;;;;;;;;;;;;;;;5081658;27;19978;-82
2021/08/16 13:09:25;;;;;;;;;;;;;;;;;;5127390;27;19977;-80
2021/08/16 13:12:07;;;;;;;;;;;;;;;;;;5087661;27;19971;-82
2021/08/16 13:14:49;;;;;;;;;;;;;;;;;;5102509;27;19944;-81
2021/08/16 13:17:31;;;;;;;;;;;;;;;;;;5110976;27;19944;-80
2021/08/16 13:20:12;;;;;;;;;;;;;;;;;;5086952;27;20025;-79
2021/08/16 13:22:53;;;;;;;;;;;;;;;;;;5142929;27;20111;-80
2021/08/16 13:25:35;;;;;;;;;;;;;;;;;;5102357;27;20373;-80
2021/08/16 13:28:16;;;;;;;;;;;;;;;;;;5093055;27;19959;-80
2021/08/16 13:30:59;;;;;;;;;;;;;;;;;;5139945;27;19959;-80
2021/08/16 13:33:40;;;;;;;;;;;;;;;;;;5117590;27;19916;-81
2021/08/16 13:36:22;;;;;;;;;;;;;;;;;;5065404;27;19960;-83
2021/08/16 13:39:04;;;;;;;;;;;;;;;;;;5096485;27;19959;-82
2021/08/16 13:41:45;;;;;;;;;;;;;;;;;;5093737;27;20017;-81
2021/08/16 13:44:26;;;;;;;;;;;;;;;;;;5085824;27;19955;-84
2021/08/16 13:47:07;;;;;;;;;;;;;;;;;;5153759;27;19916;-80
2021/08/16 13:49:50;;;;;;;;;;;;;;;;;;5068662;28;19949;-81
2021/08/16 13:52:31;;;;;;;;;;;;;;;;;;5128291;27;19919;-83
2021/08/16 13:55:12;;;;;;;;;;;;;;;;;;5070759;28;19925;-80
2021/08/16 13:57:53;;;;;;;;;;;;;;;;;;5106948;27;19963;-81
2021/08/16 14:00:36;;;;;;;;;;;;;;;;;;5129177;27;19951;-84
2021/08/16 14:03:18;;;;;;;;;;;;;;;;;;5067643;27;19978;-80
2021/08/16 14:05:59;;;;;;;;;;;;;;;;;;5142313;27;19955;-83
2021/08/16 14:08:40;;;;;;;;;;;;;;;;;;5087601;28;19951;-80
2021/08/16 14:11:22;;;;;;;;;;;;;;;;;;5102865;27;20054;-80
2021/08/16 14:14:03;;;;;;;;;;;;;;;;;;5067473;27;19953;-83
2021/08/16 14:16:45;;;;;;;;;;;;;;;;;;5084807;27;19974;-80
2021/08/16 14:19:26;;;;;;;;;;;;;;;;;;5090292;27;20462;-80
2021/08/16 14:22:08;;;;;;;;;;;;;;;;;;5130045;27;19955;-81
2021/08/16 14:24:49;;;;;;;;;;;;;;;;;;5091264;27;19952;-81
2021/08/16 14:27:32;;;;;;;;;;;;;;;;;;5137843;27;19950;-83
2021/08/16 14:30:14;;;;;;;;;;;;;;;;;;5132420;27;19916;-82
2021/08/16 14:33:06;;;;;;;;;;;;;;;;;;5106628;27;19916;-80
2021/08/16 14:35:48;;;;;;;;;;;;;;;;;;5100024;27;19973;-82
2021/08/16 14:38:29;;;;;;;;;;;;;;;;;;5102063;27;20568;-80
2021/08/16 14:41:11;;;;;;;;;;;;;;;;;;5079672;28;19987;-82
2021/08/16 14:43:52;;;;;;;;;;;;;;;;;;5122689;27;20028;-83
2021/08/16 14:46:33;;;;;;;;;;;;;;;;;;5099844;27;19951;-80
2021/08/16 14:49:15;;;;;;;;;;;;;;;;;;5076753;27;19921;-82
2021/08/16 14:51:56;;;;;;;;;;;;;;;;;;5089801;27;19955;-81
2021/08/16 14:54:38;;;;;;;;;;;;;;;;;;5118670;27;20012;-82
2021/08/16 14:57:19;;;;;;;;;;;;;;;;;;5090050;27;19963;-82
2021/08/16 15:00:00;;;;;;;;;;;;;;;;;;5137881;27;20404;-83
2021/08/16 15:02:42;;;;;;;;;;;;;;;;;;5084439;27;19955;-82
2021/08/16 15:05:21;;;;;;;;;;;;;;;;;;5061197;27;1950187;-85
2021/08/16 15:08:03;;;;;;;;;;;;;;;;;;5113175;27;19916;-83
2021/08/16 15:10:45;;;;;;;;;;;;;;;;;;5086402;27;19942;-90
2021/08/16 15:13:26;;;;;;;;;;;;;;;;;;5131436;27;19955;-83
2021/08/16 15:16:09;;;;;;;;;;;;;;;;;;5120563;27;19959;-83
2021/08/16 15:18:50;;;;;;;;;;;;;;;;;;5105691;27;19938;-83
2021/08/16 15:21:32;;;;;;;;;;;;;;;;;;5093282;27;19956;-83
2021/08/16 15:24:23;;;;;;;;;;;;;;;;;;5102835;27;20322;-84
2021/08/16 15:37:33;;;;;;;;;;;;;;;;;;5126216;27;19954;-85
2021/08/16 15:40:14;;;;;;;;;;;;;;;;;;5077371;27;19944;-85
2021/08/16 15:42:56;;;;;;;;;;;;;;;;;;5114832;27;19948;-82
2021/08/16 15:45:38;;;;;;;;;;;;;;;;;;5101081;27;19969;-82
2021/08/16 15:48:20;;;;;;;;;;;;;;;;;;5123887;27;19955;-83
2021/08/16 15:51:01;;;;;;;;;;;;;;;;;;5086311;27;19940;-81
2021/08/16 15:53:43;;;;;;;;;;;;;;;;;;5103146;27;19973;-86
2021/08/16 15:56:24;;;;;;;;;;;;;;;;;;5119745;27;19986;-83
2021/08/16 15:59:05;;;;;;;;;;;;;;;;;;5059934;27;20330;-83
2021/08/16 16:01:47;;;;;;;;;;;;;;;;;;5127834;27;19956;-84
2021/08/16 16:04:29;;;;;;;;;;;;;;;;;;5168969;27;19956;-85
2021/08/16 16:07:10;;;;;;;;;;;;;;;;;;5105244;27;19942;-85
2021/08/16 16:10:09;;;;;;;;;;;;;;;;;;5135073;27;19950;-87
2021/08/16 16:13:01;;;;;;;;;;;;;;;;;;5125788;27;19951;-83
2021/08/16 16:15:44;;;;;;;;;;;;;;;;;;5092323;27;19985;-79
2021/08/16 16:18:26;;;;;;;;;;;;;;;;;;5154117;27;19959;-81
2021/08/16 16:21:07;;;;;;;;;;;;;;;;;;5099145;27;19916;-84
2021/08/16 16:23:51;;;;;;;;;;;;;;;;;;5132492;27;19915;-81
2021/08/16 16:26:34;;;;;;;;;;;;;;;;;;5133298;27;19963;-86
2021/08/16 16:29:14;;;;;;;;;;;;;;;;;;5105307;27;19943;-81
2021/08/16 16:31:58;;;;;;;;;;;;;;;;;;5128547;27;20003;-81
2021/08/16 16:34:42;;;;;;;;;;;;;;;;;;5085624;27;19948;-81
2021/08/16 16:37:23;;;;;;;;;;;;;;;;;;5092437;27;20398;-82
2021/08/16 16:40:06;;;;;;;;;;;;;;;;;;5082158;27;20071;-85
2021/08/16 16:42:46;;;;;;;;;;;;;;;;;;5100774;27;19963;-81
2021/08/16 16:45:28;;;;;;;;;;;;;;;;;;5101694;27;19955;-80
2021/08/16 16:48:09;;;;;;;;;;;;;;;;;;5079401;27;20390;-82
2021/08/16 16:50:53;;;;;;;;;;;;;;;;;;5095008;27;20025;-79
2021/08/16 16:53:34;;;;;;;;;;;;;;;;;;5107084;27;19955;-80
2021/08/16 16:56:15;;;;;;;;;;;;;;;;;;5051032;28;19978;-81
2021/08/16 16:58:56;;;;;;;;;;;;;;;;;;5089671;27;19960;-83
2021/08/16 17:01:38;;;;;;;;;;;;;;;;;;5084123;27;19916;-80
2021/08/16 17:04:19;;;;;;;;;;;;;;;;;;5144767;27;19916;-81
2021/08/16 17:07:04;;;;;;;;;;;;;;;;;;5102261;27;20382;-82
2021/08/16 17:09:45;;;;;;;;;;;;;;;;;;5039683;27;20370;-84
2021/08/16 17:12:27;;;;;;;;;;;;;;;;;;5126711;27;19951;-84
2021/08/16 17:15:09;;;;;;;;;;;;;;;;;;5106382;27;19916;-80
2021/08/16 17:17:49;;;;;;;;;;;;;;;;;;5083274;27;19924;-82
2021/08/16 17:20:31;;;;;;;;;;;;;;;;;;5143799;27;19917;-86
2021/08/16 17:23:12;;;;;;;;;;;;;;;;;;5159492;27;19954;-83
2021/08/16 17:25:54;;;;;;;;;;;;;;;;;;5128989;27;19961;-83
2021/08/16 17:28:35;;;;;;;;;;;;;;;;;;5098243;27;19950;-86
2021/08/16 17:31:16;;;;;;;;;;;;;;;;;;5146023;27;19920;-79
2021/08/16 17:33:58;;;;;;;;;;;;;;;;;;5102494;27;19985;-80